Time;durP1;ratioP1;P1;durP2;ratioP2;P2;SDS_P1;SDS_P2;PMS_P1;PMS_P2;Temp;Humidity;BMP_temperature;BMP_pressure;BME280_temperature;BME280_humidity;BME280_pressure;Samples;Min_cycle;Max_cycle;Signal;HPM_P1;HPM_P2
2024/02/14 00:01:34;;;;;;;;;;;;;;;10.00;56.95;101407.78;4989579;28;19922;-80
2024/02/14 00:04:26;;;;;;;;;;;;;;;9.94;57.47;101408.94;4982177;28;19918;-80
2024/02/14 00:07:19;;;;;;;;;;;;;;;9.36;58.91;101403.72;4990537;28;19918;-80
2024/02/14 00:10:11;;;;;;;;;;;;;;;9.42;59.00;101407.19;4985393;28;19921;-81
2024/02/14 00:13:03;;;;;;;;;;;;;;;9.61;58.58;101407.22;4984014;28;19918;-81
2024/02/14 00:15:52;;;;;;;;;;;;;;;9.44;57.68;101403.09;5001356;28;19921;-81
2024/02/14 00:18:44;;;;;;;;;;;;;;;9.72;57.62;101400.56;4984394;28;20002;-82
2024/02/14 00:21:36;;;;;;;;;;;;;;;9.78;56.68;101405.63;4981842;28;19918;-81
2024/02/14 00:24:27;;;;;;;;;;;;;;;9.83;56.87;101399.31;4987115;28;20383;-82
2024/02/14 00:27:19;;;;;;;;;;;;;;;9.83;56.49;101404.75;5001051;28;19917;-81
2024/02/14 00:33:21;;;;;;;;;;;;;;;9.44;57.40;101408.53;4897391;29;20393;-81
2024/02/14 00:36:13;;;;;;;;;;;;;;;9.20;58.46;101410.44;4905194;29;19927;-80
2024/02/14 00:39:08;;;;;;;;;;;;;;;9.10;58.25;101407.03;4903855;29;21631;-81
2024/02/14 00:42:00;;;;;;;;;;;;;;;9.45;58.21;101404.69;4923761;29;19923;-80
2024/02/14 00:44:52;;;;;;;;;;;;;;;9.67;56.23;101404.16;4923883;29;19919;-81
2024/02/14 00:47:45;;;;;;;;;;;;;;;9.79;56.05;101398.31;4918011;29;19919;-81
2024/02/14 00:53:53;;;;;;;;;;;;;;;9.73;55.74;101411.13;4913305;29;19927;-81
2024/02/14 00:56:45;;;;;;;;;;;;;;;9.05;58.08;101418.75;4906483;29;20420;-80
2024/02/14 01:02:41;;;;;;;;;;;;;;;8.79;57.43;101414.66;4934648;29;19927;-80
2024/02/14 01:05:33;;;;;;;;;;;;;;;8.80;57.30;101413.56;4939280;29;19922;-81
2024/02/14 01:08:23;;;;;;;;;;;;;;;8.75;57.54;101428.00;4942941;29;19918;-80
2024/02/14 01:11:15;;;;;;;;;;;;;;;8.41;58.69;101421.78;4956939;28;19918;-81
2024/02/14 01:14:07;;;;;;;;;;;;;;;8.60;58.93;101420.00;4961630;28;20303;-81
2024/02/14 01:16:56;;;;;;;;;;;;;;;8.35;58.80;101420.19;4955677;28;19922;-80
2024/02/14 01:19:48;;;;;;;;;;;;;;;8.27;59.02;101432.44;4944531;28;19922;-81
2024/02/14 01:22:40;;;;;;;;;;;;;;;8.48;58.40;101433.13;4961505;28;19918;-81
2024/02/14 01:25:32;;;;;;;;;;;;;;;8.48;57.97;101428.47;4961693;28;20300;-80
2024/02/14 01:31:22;;;;;;;;;;;;;;;8.57;57.14;101426.00;4916192;29;19927;-81
2024/02/14 01:34:15;;;;;;;;;;;;;;;8.73;56.94;101419.34;4929386;29;19923;-81
2024/02/14 01:37:07;;;;;;;;;;;;;;;8.79;56.52;101423.59;4938893;29;19918;-80
2024/02/14 01:39:59;;;;;;;;;;;;;;;8.80;55.98;101419.81;4927802;29;19922;-80
2024/02/14 01:42:51;;;;;;;;;;;;;;;8.92;56.04;101422.94;4942302;29;19919;-79
2024/02/14 01:45:43;;;;;;;;;;;;;;;9.00;55.84;101425.03;4952428;29;19902;-81
2024/02/14 01:48:35;;;;;;;;;;;;;;;8.91;55.65;101425.94;4957499;29;19919;-80
2024/02/14 01:51:27;;;;;;;;;;;;;;;9.07;55.65;101421.19;4937102;29;19919;-80
2024/02/14 01:54:19;;;;;;;;;;;;;;;9.05;55.66;101421.44;4922820;29;19923;-81
2024/02/14 01:57:11;;;;;;;;;;;;;;;9.01;55.08;101425.84;4920925;29;19919;-80
2024/02/14 02:00:10;;;;;;;;;;;;;;;8.95;54.78;101429.69;4918296;29;20306;-81
2024/02/14 02:03:02;;;;;;;;;;;;;;;8.85;54.74;101427.09;4923915;29;19919;-81
2024/02/14 02:05:54;;;;;;;;;;;;;;;8.92;54.62;101427.56;4921144;29;19919;-81
2024/02/14 02:08:44;;;;;;;;;;;;;;;9.02;54.28;101419.31;4944521;29;19918;-81
2024/02/14 02:11:44;;;;;;;;;;;;;;;9.11;54.18;101424.91;4931546;29;19920;-80
2024/02/14 02:14:33;;;;;;;;;;;;;;;9.29;53.61;101424.19;4926557;29;19923;-81
2024/02/14 02:17:25;;;;;;;;;;;;;;;9.29;52.39;101421.47;4926665;29;19923;-81
2024/02/14 02:23:24;;;;;;;;;;;;;;;9.31;52.67;101416.56;4899632;29;19927;-81
2024/02/14 02:26:16;;;;;;;;;;;;;;;9.14;53.31;101408.09;4907798;29;19919;-81
2024/02/14 02:29:08;;;;;;;;;;;;;;;9.18;52.63;101414.53;4911674;29;19919;-80
2024/02/14 02:32:00;;;;;;;;;;;;;;;9.12;52.82;101421.13;4926564;29;19923;-80
2024/02/14 02:34:52;;;;;;;;;;;;;;;9.24;52.21;101418.81;4926297;29;19923;-81
2024/02/14 02:37:44;;;;;;;;;;;;;;;9.19;52.52;101416.97;4926796;29;19919;-81
2024/02/14 02:40:36;;;;;;;;;;;;;;;8.95;52.57;101425.09;4920300;29;19923;-79
2024/02/14 02:43:28;;;;;;;;;;;;;;;8.93;52.67;101421.06;4926470;29;20380;-79
2024/02/14 02:46:20;;;;;;;;;;;;;;;9.17;52.23;101423.78;4926573;29;20309;-80
2024/02/14 02:52:22;;;;;;;;;;;;;;;9.16;52.49;101439.25;4880374;29;19928;-81
2024/02/14 02:55:14;;;;;;;;;;;;;;;9.25;52.79;101442.13;4888174;29;19924;-81
2024/02/14 02:58:06;;;;;;;;;;;;;;;9.30;52.75;101437.44;4887953;29;20397;-81
2024/02/14 03:00:57;;;;;;;;;;;;;;;9.30;53.08;101433.94;4887669;29;19920;-81
2024/02/14 03:03:49;;;;;;;;;;;;;;;9.39;52.41;101441.16;4887554;29;19919;-81
2024/02/14 03:06:41;;;;;;;;;;;;;;;9.41;52.58;101441.69;4883691;29;19920;-80
2024/02/14 03:09:31;;;;;;;;;;;;;;;9.27;52.86;101445.38;4881334;29;19920;-81
2024/02/14 03:12:23;;;;;;;;;;;;;;;9.36;52.97;101441.72;4887266;29;19924;-80
2024/02/14 03:15:18;;;;;;;;;;;;;;;9.32;53.47;101448.84;4882593;29;19923;-81
2024/02/14 03:18:09;;;;;;;;;;;;;;;9.06;54.25;101450.19;4887910;29;20305;-80
2024/02/14 03:21:01;;;;;;;;;;;;;;;8.95;54.09;101454.09;4887757;29;19919;-80
2024/02/14 03:23:53;;;;;;;;;;;;;;;8.95;53.97;101460.34;4887791;29;19919;-81
2024/02/14 03:26:45;;;;;;;;;;;;;;;8.97;54.41;101460.06;4887631;29;19928;-80
2024/02/14 03:29:37;;;;;;;;;;;;;;;8.76;54.55;101458.63;4884260;29;19920;-80
2024/02/14 03:32:29;;;;;;;;;;;;;;;8.60;54.81;101463.38;4886850;29;19920;-80
2024/02/14 03:35:18;;;;;;;;;;;;;;;8.74;55.13;101472.47;4886853;29;19923;-80
2024/02/14 03:38:10;;;;;;;;;;;;;;;8.89;55.13;101474.22;4887012;29;19919;-80
2024/02/14 03:41:02;;;;;;;;;;;;;;;8.76;55.63;101474.91;4887081;29;20409;-80
2024/02/14 03:43:54;;;;;;;;;;;;;;;8.90;55.94;101479.38;4887286;29;19919;-80
2024/02/14 03:46:46;;;;;;;;;;;;;;;8.93;55.86;101483.44;4881905;29;19924;-80
2024/02/14 03:49:39;;;;;;;;;;;;;;;8.92;55.63;101487.25;4887189;29;19920;-80
2024/02/14 03:52:31;;;;;;;;;;;;;;;8.66;56.66;101489.34;4968715;28;19927;-80
2024/02/14 03:55:23;;;;;;;;;;;;;;;8.45;56.37;101493.28;4975204;28;19922;-80
2024/02/14 03:58:15;;;;;;;;;;;;;;;8.65;56.61;101485.00;4963304;28;19918;-80
2024/02/14 04:01:04;;;;;;;;;;;;;;;8.46;57.66;101475.94;4943853;28;20392;-80
2024/02/14 04:03:56;;;;;;;;;;;;;;;8.13;58.13;101463.94;4943974;29;19918;-79
2024/02/14 04:06:48;;;;;;;;;;;;;;;8.15;58.25;101480.72;4943820;29;19923;-79
2024/02/14 04:09:43;;;;;;;;;;;;;;;8.46;57.71;101501.16;4940183;29;19922;-80
2024/02/14 04:12:32;;;;;;;;;;;;;;;8.64;57.20;101512.41;4943750;29;19927;-80
2024/02/14 04:15:24;;;;;;;;;;;;;;;8.50;57.70;101504.09;4943702;29;19923;-80
2024/02/14 04:18:18;;;;;;;;;;;;;;;8.00;59.54;101505.19;4943701;29;19919;-80
2024/02/14 04:21:09;;;;;;;;;;;;;;;7.99;58.92;101512.50;4951328;28;20335;-80
2024/02/14 04:24:01;;;;;;;;;;;;;;;8.21;58.76;101506.72;4947662;29;19922;-79
2024/02/14 04:26:54;;;;;;;;;;;;;;;8.36;58.53;101508.53;4957802;28;19918;-80
2024/02/14 04:29:47;;;;;;;;;;;;;;;8.36;58.62;101503.94;4960771;28;20380;-80
2024/02/14 04:32:37;;;;;;;;;;;;;;;8.40;58.46;101506.88;4962498;28;19923;-80
2024/02/14 04:35:26;;;;;;;;;;;;;;;8.63;59.25;101510.81;4960279;28;19922;-79
2024/02/14 04:38:18;;;;;;;;;;;;;;;8.64;58.74;101506.97;4962168;28;19918;-80
2024/02/14 04:41:10;;;;;;;;;;;;;;;8.91;59.59;101510.03;4959918;28;20376;-80
2024/02/14 04:44:05;;;;;;;;;;;;;;;8.52;58.20;101512.78;4941634;29;20296;-80
2024/02/14 04:46:57;;;;;;;;;;;;;;;8.20;57.90;101518.63;4962358;28;19918;-80
2024/02/14 04:49:48;;;;;;;;;;;;;;;8.05;58.45;101516.00;4958534;28;20388;-80
2024/02/14 04:52:45;;;;;;;;;;;;;;;8.16;59.31;101514.88;4943370;29;20312;-80
2024/02/14 04:55:37;;;;;;;;;;;;;;;8.53;60.89;101500.84;4943032;29;19922;-80
2024/02/14 04:58:26;;;;;;;;;;;;;;;8.43;58.63;101506.34;4942844;29;19919;-80
2024/02/14 05:01:18;;;;;;;;;;;;;;;8.28;58.42;101514.53;4950935;28;19918;-80
2024/02/14 05:04:08;;;;;;;;;;;;;;;8.15;59.11;101519.47;4954289;28;19922;-81
2024/02/14 05:07:00;;;;;;;;;;;;;;;8.20;58.15;101518.63;4957813;28;19923;-81
2024/02/14 05:09:52;;;;;;;;;;;;;;;8.17;58.46;101513.78;4949642;29;19922;-81
2024/02/14 05:12:44;;;;;;;;;;;;;;;8.15;58.76;101516.75;4963381;28;19919;-81
2024/02/14 05:15:35;;;;;;;;;;;;;;;8.11;58.32;101510.28;4945016;29;19923;-81
2024/02/14 05:18:27;;;;;;;;;;;;;;;7.97;58.72;101511.16;4943751;29;19918;-81
2024/02/14 05:21:22;;;;;;;;;;;;;;;8.04;59.37;101515.19;4961493;28;20396;-80
2024/02/14 05:24:14;;;;;;;;;;;;;;;8.16;58.30;101518.38;4944237;28;19919;-80
2024/02/14 05:27:06;;;;;;;;;;;;;;;8.03;58.49;101515.44;4957278;28;19918;-81
2024/02/14 05:29:58;;;;;;;;;;;;;;;7.67;59.88;101521.00;4942495;28;19919;-80
2024/02/14 05:32:50;;;;;;;;;;;;;;;7.60;60.40;101525.94;4952685;28;19922;-81
2024/02/14 05:35:42;;;;;;;;;;;;;;;7.66;60.22;101522.13;4943157;29;19922;-81
2024/02/14 05:38:34;;;;;;;;;;;;;;;7.68;59.95;101527.25;4964439;28;19918;-81
2024/02/14 05:41:26;;;;;;;;;;;;;;;7.64;59.75;101535.13;4969131;28;20372;-81
2024/02/14 05:44:18;;;;;;;;;;;;;;;7.63;60.39;101535.38;4958804;28;19919;-80
2024/02/14 05:47:10;;;;;;;;;;;;;;;7.63;60.23;101540.78;4949920;29;19923;-80
2024/02/14 05:50:02;;;;;;;;;;;;;;;7.65;60.08;101549.47;4945023;29;19918;-80
2024/02/14 05:52:51;;;;;;;;;;;;;;;7.64;60.19;101551.34;4967742;28;20376;-81
2024/02/14 05:55:43;;;;;;;;;;;;;;;7.79;60.56;101555.91;4949945;29;19922;-81
2024/02/14 05:58:35;;;;;;;;;;;;;;;7.72;60.37;101555.38;4964995;28;19919;-81
2024/02/14 06:01:26;;;;;;;;;;;;;;;7.80;60.59;101565.66;4966064;28;20300;-80
2024/02/14 06:04:16;;;;;;;;;;;;;;;7.67;59.61;101558.09;4967676;28;19922;-81
2024/02/14 06:07:08;;;;;;;;;;;;;;;7.58;60.88;101560.56;4961606;28;19922;-81
2024/02/14 06:09:59;;;;;;;;;;;;;;;7.66;60.75;101557.31;4963565;28;19922;-81
2024/02/14 06:12:51;;;;;;;;;;;;;;;7.59;60.93;101562.19;4948117;29;19918;-80
2024/02/14 06:15:43;;;;;;;;;;;;;;;7.77;60.20;101562.69;4959917;28;20312;-81
2024/02/14 06:18:35;;;;;;;;;;;;;;;7.56;60.39;101567.34;4961135;28;19918;-81
2024/02/14 06:21:27;;;;;;;;;;;;;;;7.57;60.78;101564.34;4964863;28;19918;-81
2024/02/14 06:24:19;;;;;;;;;;;;;;;7.38;62.05;101567.91;4968609;28;20442;-79
2024/02/14 06:27:13;;;;;;;;;;;;;;;7.03;62.77;101566.03;4949725;28;19919;-81
2024/02/14 06:30:05;;;;;;;;;;;;;;;7.18;62.19;101566.84;4941758;28;19919;-78
2024/02/14 06:32:57;;;;;;;;;;;;;;;6.99;62.52;101567.66;4951804;29;19918;-78
2024/02/14 06:35:48;;;;;;;;;;;;;;;6.96;62.94;101570.94;4966876;28;19922;-77
2024/02/14 06:38:40;;;;;;;;;;;;;;;6.27;65.13;101572.13;4965832;28;19919;-78
2024/02/14 06:41:32;;;;;;;;;;;;;;;6.38;65.08;101572.97;4952946;28;19918;-78
2024/02/14 06:44:26;;;;;;;;;;;;;;;6.37;65.67;101580.28;4958350;28;19918;-80
2024/02/14 06:47:18;;;;;;;;;;;;;;;6.21;66.53;101583.19;4951432;28;19919;-80
2024/02/14 06:50:10;;;;;;;;;;;;;;;6.15;66.85;101584.22;4937438;29;19923;-80
2024/02/14 06:53:02;;;;;;;;;;;;;;;6.53;65.84;101591.94;4952745;28;20312;-80
2024/02/14 06:55:54;;;;;;;;;;;;;;;6.80;64.67;101597.94;4962283;28;19926;-80
2024/02/14 06:58:46;;;;;;;;;;;;;;;7.00;65.42;101601.75;4956839;28;19922;-80
2024/02/14 07:01:38;;;;;;;;;;;;;;;7.16;64.45;101608.78;4962341;28;19918;-80
2024/02/14 07:04:30;;;;;;;;;;;;;;;7.31;64.32;101608.78;4970869;28;19922;-80
2024/02/14 07:07:19;;;;;;;;;;;;;;;7.25;63.20;101612.56;4946040;29;19918;-79
2024/02/14 07:10:11;;;;;;;;;;;;;;;7.28;63.88;101618.25;4948623;28;19919;-80
2024/02/14 07:13:03;;;;;;;;;;;;;;;7.45;63.29;101617.97;4946539;28;19919;-80
2024/02/14 07:15:55;;;;;;;;;;;;;;;7.53;63.17;101625.53;4952626;28;19926;-80
2024/02/14 07:18:47;;;;;;;;;;;;;;;7.54;64.13;101627.16;4939364;29;19919;-81
2024/02/14 07:21:38;;;;;;;;;;;;;;;7.68;63.81;101624.69;4943552;29;19918;-80
2024/02/14 07:24:33;;;;;;;;;;;;;;;7.84;63.56;101628.19;4950075;28;19919;-80
2024/02/14 07:27:25;;;;;;;;;;;;;;;7.96;63.71;101636.81;4951207;28;19918;-80
2024/02/14 07:30:18;;;;;;;;;;;;;;;8.09;63.81;101641.66;4947114;28;19918;-80
2024/02/14 07:33:10;;;;;;;;;;;;;;;8.18;63.84;101640.00;4942463;28;19927;-80
2024/02/14 07:36:05;;;;;;;;;;;;;;;8.20;63.58;101640.53;4955945;28;19923;-80
2024/02/14 07:38:57;;;;;;;;;;;;;;;8.26;64.46;101641.34;4956573;28;19919;-80
2024/02/14 07:41:49;;;;;;;;;;;;;;;8.35;64.34;101648.63;4954186;28;19918;-80
2024/02/14 07:44:41;;;;;;;;;;;;;;;8.41;64.52;101657.56;4954805;28;19919;-80
2024/02/14 07:47:33;;;;;;;;;;;;;;;8.53;64.31;101656.13;4951342;28;19919;-79
2024/02/14 07:50:25;;;;;;;;;;;;;;;8.57;64.58;101653.69;4952425;28;19918;-80
2024/02/14 07:53:17;;;;;;;;;;;;;;;8.57;64.21;101654.53;4956371;28;19922;-80
2024/02/14 07:56:09;;;;;;;;;;;;;;;8.02;66.57;101665.53;4944245;28;19930;-79
2024/02/14 07:59:01;;;;;;;;;;;;;;;7.55;68.72;101676.69;4951121;29;19918;-80
2024/02/14 08:01:54;;;;;;;;;;;;;;;7.91;67.56;101674.75;4953623;28;19918;-78
2024/02/14 08:04:46;;;;;;;;;;;;;;;8.15;65.78;101679.31;4941816;28;19927;-80
2024/02/14 08:07:38;;;;;;;;;;;;;;;8.36;64.92;101680.06;4936218;29;19923;-80
2024/02/14 08:10:30;;;;;;;;;;;;;;;8.55;64.01;101677.56;4949031;28;19922;-79
2024/02/14 08:13:22;;;;;;;;;;;;;;;8.61;64.61;101675.63;4961555;28;19923;-80
2024/02/14 08:16:11;;;;;;;;;;;;;;;8.80;64.68;101673.91;4943660;28;19926;-80
2024/02/14 08:19:04;;;;;;;;;;;;;;;8.82;63.55;101677.97;4945935;28;19918;-79
2024/02/14 08:21:57;;;;;;;;;;;;;;;8.72;63.33;101674.50;4947570;29;19922;-79
2024/02/14 08:24:48;;;;;;;;;;;;;;;8.88;62.83;101674.16;4946211;29;19922;-79
2024/02/14 08:27:40;;;;;;;;;;;;;;;9.02;63.08;101679.75;4949572;28;19923;-79
2024/02/14 08:30:32;;;;;;;;;;;;;;;9.19;62.69;101682.91;4942961;28;20392;-80
2024/02/14 08:33:24;;;;;;;;;;;;;;;9.29;63.11;101690.97;4941373;28;20389;-79
2024/02/14 08:36:16;;;;;;;;;;;;;;;9.39;62.42;101684.66;4957994;28;19927;-79
2024/02/14 08:39:11;;;;;;;;;;;;;;;9.49;62.15;101681.06;4947022;28;19923;-80
2024/02/14 08:42:01;;;;;;;;;;;;;;;9.53;62.60;101684.81;4948511;28;19918;-80
2024/02/14 08:44:51;;;;;;;;;;;;;;;9.68;63.16;101687.41;4935348;29;19930;-79
2024/02/14 08:47:45;;;;;;;;;;;;;;;9.52;63.62;101691.31;4951196;28;19926;-79
2024/02/14 08:50:35;;;;;;;;;;;;;;;9.65;64.43;101696.13;4935945;29;20137;-79
2024/02/14 08:53:27;;;;;;;;;;;;;;;9.72;64.29;101691.97;4947871;28;19923;-78
2024/02/14 08:56:19;;;;;;;;;;;;;;;9.74;64.23;101691.69;4946068;28;19927;-78
2024/02/14 08:59:11;;;;;;;;;;;;;;;9.91;64.55;101689.34;4954808;28;19919;-80
2024/02/14 09:02:03;;;;;;;;;;;;;;;10.01;64.46;101686.53;4951673;28;19919;-80
2024/02/14 09:04:55;;;;;;;;;;;;;;;10.14;64.94;101685.84;4941908;28;19919;-80
2024/02/14 09:07:42;;;;;;;;;;;;;;;10.23;65.10;101686.88;4950113;28;19918;-80
2024/02/14 09:10:29;;;;;;;;;;;;;;;10.32;64.49;101680.78;4947023;28;19919;-81
2024/02/14 09:13:21;;;;;;;;;;;;;;;10.47;64.32;101669.72;4962676;29;19919;-81
2024/02/14 09:16:11;;;;;;;;;;;;;;;10.56;64.02;101660.66;4980757;28;19922;-81
2024/02/14 09:22:42;;;;;;;;;;;;;;;10.75;63.79;101668.81;4958059;29;19927;-82
2024/02/14 09:26:41;;;;;;;;;;;;;;;10.84;63.19;101669.78;4957456;29;19910;-81
2024/02/14 09:30:30;;;;;;;;;;;;;;;10.97;62.89;101677.22;4961468;28;19915;-82
2024/02/14 09:34:25;;;;;;;;;;;;;;;11.03;64.42;101672.50;4956261;28;19910;-80
2024/02/14 10:01:04;;;;;;;;;;;;;;;12.01;56.26;101693.25;4974333;28;19927;-84
2024/02/14 10:04:28;;;;;;;;;;;;;;;12.03;55.07;101701.13;4969844;28;19926;-84
2024/02/14 10:07:28;;;;;;;;;;;;;;;12.11;54.82;101695.78;4984670;28;19946;-84
2024/02/14 10:10:29;;;;;;;;;;;;;;;12.13;53.65;101698.22;4982221;28;19930;-82
2024/02/14 10:17:34;;;;;;;;;;;;;;;12.46;54.08;101688.03;4985056;28;19931;-83
2024/02/14 10:20:26;;;;;;;;;;;;;;;12.73;52.98;101693.47;4981520;28;19930;-83
2024/02/14 10:23:16;;;;;;;;;;;;;;;12.86;52.11;101701.63;4983838;28;19926;-83
2024/02/14 10:26:08;;;;;;;;;;;;;;;12.90;51.76;101684.66;4974952;28;19918;-84
2024/02/14 10:29:00;;;;;;;;;;;;;;;13.00;52.34;101687.16;4973608;28;19922;-84
2024/02/14 10:31:53;;;;;;;;;;;;;;;13.28;51.13;101683.22;4983612;28;19918;-84
2024/02/14 10:34:45;;;;;;;;;;;;;;;13.40;51.19;101674.50;4975933;28;19922;-85
2024/02/14 10:37:41;;;;;;;;;;;;;;;13.61;50.55;101679.13;4980718;28;19930;-86
2024/02/14 10:40:34;;;;;;;;;;;;;;;13.74;50.22;101676.63;4976948;28;20392;-84
2024/02/14 10:43:26;;;;;;;;;;;;;;;13.82;50.27;101675.88;4976533;28;19918;-86
2024/02/14 10:46:19;;;;;;;;;;;;;;;14.05;50.63;101671.97;4969985;28;20368;-86
2024/02/14 10:49:09;;;;;;;;;;;;;;;14.13;48.67;101668.47;4973616;28;20308;-85
2024/02/14 10:52:04;;;;;;;;;;;;;;;14.25;48.75;101665.13;4982685;28;20315;-86
2024/02/14 10:55:01;;;;;;;;;;;;;;;14.23;48.99;101670.09;4974432;28;20380;-84
2024/02/14 10:57:53;;;;;;;;;;;;;;;14.43;48.98;101664.09;4971569;28;19922;-84
2024/02/14 11:00:45;;;;;;;;;;;;;;;14.68;49.61;101670.78;4967082;28;19922;-84
2024/02/14 11:03:37;;;;;;;;;;;;;;;14.83;47.36;101664.84;4969868;28;20311;-84
2024/02/14 11:06:30;;;;;;;;;;;;;;;14.88;47.75;101667.41;4970465;28;19918;-82
2024/02/14 11:09:22;;;;;;;;;;;;;;;14.91;45.93;101670.31;4979851;28;19948;-84
2024/02/14 11:12:17;;;;;;;;;;;;;;;15.01;46.36;101660.16;4971134;28;19918;-85
2024/02/14 11:15:24;;;;;;;;;;;;;;;15.01;46.01;101658.22;4976405;28;19918;-83
2024/02/14 11:18:26;;;;;;;;;;;;;;;15.07;45.92;101651.47;4968949;28;19930;-83
2024/02/14 11:21:22;;;;;;;;;;;;;;;15.26;45.20;101660.16;4968989;28;20392;-83
2024/02/14 11:24:17;;;;;;;;;;;;;;;15.20;44.58;101663.38;4971863;28;20343;-84
2024/02/14 11:27:09;;;;;;;;;;;;;;;15.39;44.86;101661.91;4969287;28;19918;-83
2024/02/14 11:30:01;;;;;;;;;;;;;;;15.56;45.04;101663.88;4974713;28;19918;-84
2024/02/14 11:32:54;;;;;;;;;;;;;;;15.49;44.55;101665.47;4971277;28;19944;-83
2024/02/14 11:35:46;;;;;;;;;;;;;;;15.60;44.60;101666.75;4978512;28;19926;-84
2024/02/14 11:38:39;;;;;;;;;;;;;;;15.77;44.00;101659.31;4955465;28;19922;-84
2024/02/14 11:41:28;;;;;;;;;;;;;;;15.87;44.00;101655.41;4952062;28;20379;-83
2024/02/14 11:44:21;;;;;;;;;;;;;;;15.77;44.56;101663.97;4977922;28;20347;-84
2024/02/14 11:47:13;;;;;;;;;;;;;;;16.00;43.89;101651.63;4968777;28;20299;-84
2024/02/14 11:50:02;;;;;;;;;;;;;;;15.97;44.35;101646.81;4970855;28;20407;-83
2024/02/14 11:52:54;;;;;;;;;;;;;;;16.00;43.70;101654.38;4977348;28;19918;-83
2024/02/14 11:55:46;;;;;;;;;;;;;;;15.94;43.74;101654.91;4974787;28;20315;-83
2024/02/14 11:58:38;;;;;;;;;;;;;;;16.01;43.24;101653.25;4972498;28;20320;-83
2024/02/14 12:01:30;;;;;;;;;;;;;;;16.14;42.57;101649.50;4966205;28;19918;-83
2024/02/14 12:04:20;;;;;;;;;;;;;;;16.04;43.22;101646.31;4955506;28;19918;-82
2024/02/14 12:07:12;;;;;;;;;;;;;;;16.08;42.93;101639.84;4961218;28;19922;-83
2024/02/14 12:10:02;;;;;;;;;;;;;;;16.22;42.86;101632.16;4966322;28;19925;-83
2024/02/14 12:12:54;;;;;;;;;;;;;;;16.33;42.76;101653.75;4963984;28;19930;-82
2024/02/14 12:15:50;;;;;;;;;;;;;;;16.36;43.38;101648.41;4963514;28;19926;-83
2024/02/14 12:18:40;;;;;;;;;;;;;;;16.30;42.24;101630.53;4961719;28;19919;-82
2024/02/14 12:21:34;;;;;;;;;;;;;;;16.19;41.93;101637.53;4967880;28;19918;-83
2024/02/14 12:24:29;;;;;;;;;;;;;;;16.23;42.45;101639.28;4973589;28;20384;-83
2024/02/14 12:27:18;;;;;;;;;;;;;;;16.39;41.68;101628.53;4961194;28;20388;-82
2024/02/14 12:30:10;;;;;;;;;;;;;;;16.55;41.57;101623.28;4970470;28;19918;-83
2024/02/14 12:33:07;;;;;;;;;;;;;;;16.57;41.95;101626.47;4971343;28;19918;-83
2024/02/14 12:35:59;;;;;;;;;;;;;;;16.68;40.18;101614.00;4973123;28;19926;-83
2024/02/14 12:38:51;;;;;;;;;;;;;;;16.84;40.83;101608.69;4972031;28;19918;-83
2024/02/14 12:41:43;;;;;;;;;;;;;;;16.87;40.47;101611.56;4962781;28;20305;-82
2024/02/14 12:44:35;;;;;;;;;;;;;;;17.05;39.93;101610.31;4968380;28;19918;-83
2024/02/14 12:47:25;;;;;;;;;;;;;;;17.11;39.92;101608.16;4964652;28;20447;-83
2024/02/14 12:50:17;;;;;;;;;;;;;;;17.17;40.62;101609.53;4969359;28;20303;-83
2024/02/14 12:53:08;;;;;;;;;;;;;;;17.32;39.67;101597.13;4974671;28;19922;-83
2024/02/14 12:56:00;;;;;;;;;;;;;;;17.42;39.38;101593.94;4973868;28;19922;-82
2024/02/14 12:58:50;;;;;;;;;;;;;;;17.40;39.92;101587.97;4970448;28;19922;-82
2024/02/14 13:01:39;;;;;;;;;;;;;;;17.05;40.82;101591.06;4970887;28;19918;-82
2024/02/14 13:04:31;;;;;;;;;;;;;;;17.23;40.88;101593.63;4966238;28;19923;-82
2024/02/14 13:07:21;;;;;;;;;;;;;;;17.46;41.04;101594.88;4961549;28;19926;-83
2024/02/14 13:10:13;;;;;;;;;;;;;;;17.52;39.66;101588.78;4974556;28;19918;-80
2024/02/14 13:13:05;;;;;;;;;;;;;;;17.21;40.29;101585.75;4958482;28;19919;-80
2024/02/14 13:15:57;;;;;;;;;;;;;;;17.38;40.07;101588.31;4966979;28;19922;-81
2024/02/14 13:18:49;;;;;;;;;;;;;;;17.44;39.88;101578.69;4970748;28;19918;-80
2024/02/14 13:21:41;;;;;;;;;;;;;;;17.59;40.28;101580.00;4977756;28;19921;-81
2024/02/14 13:24:30;;;;;;;;;;;;;;;17.51;40.16;101578.16;4976669;28;19918;-81
2024/02/14 13:27:23;;;;;;;;;;;;;;;17.59;40.45;101573.69;4972709;28;19926;-80
2024/02/14 13:30:12;;;;;;;;;;;;;;;17.66;40.22;101569.25;4974044;28;19922;-82
2024/02/14 13:33:04;;;;;;;;;;;;;;;17.62;41.33;101571.09;4977990;28;19922;-82
2024/02/14 13:35:54;;;;;;;;;;;;;;;17.78;40.94;101573.94;4967687;28;19926;-83
2024/02/14 13:38:46;;;;;;;;;;;;;;;17.94;40.14;101572.94;4971758;28;19922;-83
2024/02/14 13:41:35;;;;;;;;;;;;;;;17.65;40.75;101572.34;4975800;28;19918;-83
2024/02/14 13:44:27;;;;;;;;;;;;;;;17.46;41.45;101573.69;4965723;28;19918;-83
2024/02/14 13:47:22;;;;;;;;;;;;;;;17.43;41.22;101577.09;4961769;28;19918;-83
2024/02/14 13:50:14;;;;;;;;;;;;;;;17.30;41.80;101578.22;4975859;28;19919;-82
2024/02/14 13:53:06;;;;;;;;;;;;;;;17.49;40.99;101563.91;4961469;28;19922;-83
2024/02/14 13:55:56;;;;;;;;;;;;;;;17.54;41.71;101550.75;4981525;28;19922;-83
2024/02/14 13:58:48;;;;;;;;;;;;;;;17.55;41.72;101548.81;4970706;28;19926;-84
2024/02/14 14:01:38;;;;;;;;;;;;;;;17.34;41.54;101559.06;4977846;28;19918;-83
2024/02/14 14:04:30;;;;;;;;;;;;;;;17.27;41.76;101556.09;4985041;28;20294;-83
2024/02/14 14:07:22;;;;;;;;;;;;;;;17.40;42.89;101549.47;4959842;28;19919;-83
2024/02/14 14:10:12;;;;;;;;;;;;;;;17.50;41.83;101549.03;4969929;28;19919;-83
2024/02/14 14:13:01;;;;;;;;;;;;;;;17.38;41.98;101540.75;4961540;28;19919;-83
2024/02/14 14:15:53;;;;;;;;;;;;;;;17.33;42.21;101546.47;4968687;28;19918;-83
2024/02/14 14:18:45;;;;;;;;;;;;;;;17.31;42.36;101546.03;4977594;28;19918;-83
2024/02/14 14:21:37;;;;;;;;;;;;;;;17.33;42.81;101543.72;4979950;28;19919;-83
2024/02/14 14:24:29;;;;;;;;;;;;;;;17.20;43.54;101539.34;4983851;28;19918;-83
2024/02/14 14:27:21;;;;;;;;;;;;;;;17.05;43.58;101538.03;4983823;28;20395;-83
2024/02/14 14:30:11;;;;;;;;;;;;;;;16.88;43.88;101550.00;4972499;28;20311;-83
2024/02/14 14:33:00;;;;;;;;;;;;;;;16.88;43.60;101555.50;4984139;28;19918;-83
2024/02/14 14:35:52;;;;;;;;;;;;;;;17.07;43.90;101546.75;4970887;28;19917;-83
2024/02/14 14:38:44;;;;;;;;;;;;;;;17.15;44.56;101545.06;4982333;28;19922;-83
2024/02/14 14:41:36;;;;;;;;;;;;;;;17.17;43.64;101551.03;4976485;28;19918;-83
2024/02/14 14:44:27;;;;;;;;;;;;;;;17.12;43.69;101538.28;4983389;28;19922;-82
2024/02/14 14:47:19;;;;;;;;;;;;;;;16.91;44.14;101543.84;4975021;28;20399;-83
2024/02/14 14:50:11;;;;;;;;;;;;;;;16.86;44.64;101549.56;4978215;28;19918;-83
2024/02/14 14:53:03;;;;;;;;;;;;;;;16.84;44.63;101540.81;4962010;28;19918;-83
2024/02/14 14:55:55;;;;;;;;;;;;;;;16.79;44.38;101541.03;4972893;28;19919;-83
2024/02/14 14:58:45;;;;;;;;;;;;;;;16.76;44.65;101538.94;4963600;28;19918;-83
2024/02/14 15:01:37;;;;;;;;;;;;;;;16.80;44.42;101542.66;4964040;28;19919;-83
2024/02/14 15:04:29;;;;;;;;;;;;;;;16.76;44.49;101533.44;4963497;28;19922;-83
2024/02/14 15:07:21;;;;;;;;;;;;;;;16.82;44.58;101534.84;4965864;28;19919;-81
2024/02/14 15:10:13;;;;;;;;;;;;;;;16.74;44.71;101541.25;4969398;28;19934;-81
2024/02/14 15:13:05;;;;;;;;;;;;;;;16.84;44.36;101546.31;4976863;28;19918;-81
2024/02/14 15:15:57;;;;;;;;;;;;;;;16.91;44.79;101535.59;4967926;28;19922;-81
2024/02/14 15:18:49;;;;;;;;;;;;;;;16.97;44.61;101547.97;4977780;28;19918;-81
2024/02/14 15:21:41;;;;;;;;;;;;;;;16.83;44.88;101543.91;4966259;28;19918;-81
2024/02/14 15:24:34;;;;;;;;;;;;;;;16.83;44.71;101549.41;4965423;28;19922;-81
2024/02/14 15:27:26;;;;;;;;;;;;;;;16.71;44.70;101539.16;4968361;28;19922;-81
2024/02/14 15:33:27;;;;;;;;;;;;;;;16.91;45.14;101546.59;4967781;28;19919;-81
2024/02/14 15:36:19;;;;;;;;;;;;;;;16.55;45.09;101546.38;4971975;28;20415;-81
2024/02/14 15:39:11;;;;;;;;;;;;;;;16.49;45.64;101553.22;4975467;28;19918;-82
2024/02/14 15:42:00;;;;;;;;;;;;;;;16.43;46.33;101563.59;4975358;28;19922;-81
2024/02/14 15:44:52;;;;;;;;;;;;;;;16.40;46.85;101571.69;4963371;28;19919;-82
2024/02/14 15:47:45;;;;;;;;;;;;;;;16.23;47.18;101581.63;4974414;28;19922;-81